Jeffersonville, Ohio
Current Conditions -  °F | °C
As of 2:56 PM on Wednesday 26 Nov 2014 (Local Time) from KSGH Reporting Station
Overcast Overcast  
Wind Chill: 34°   Ceiling: 2700
Heat Index: 34°   Visibility: 7mi
Dew Point: 27°   Wind: 3mph
Humidity: 76%   Direction: 180°S
Pressure: 30.05"   Gusts: NA
Location:  39.65°N, 83.56°W
Report Text: KSGH 261956Z AUTO 18003KT 7SM OVC027 01/M03 A3005 RMK AO2 T00111027 SLP187 $
Loading
Personal Weather Stations






























Interactive Weather Map New forecast layout! Learn more

10-Day Weather Forecast

Advertisements
Track Severe Weather on mobile